Time;durP1;ratioP1;P1;durP2;ratioP2;P2;SDS_P1;SDS_P2;PMS_P1;PMS_P2;Temp;Humidity;BMP_temperature;BMP_pressure;BME280_temperature;BME280_humidity;BME280_pressure;Samples;Min_cycle;Max_cycle;Signal;HPM_P1;HPM_P2
2022/11/20 00:00:42;;;;;;;1.70;1.60;;;;;;;;;;5062931;27;89226;-69
2022/11/20 00:03:12;;;;;;;3.87;1.57;;;;;;;;;;5062876;27;88792;-69
2022/11/20 00:05:40;;;;;;;4.43;1.93;;;;;;;;;;5063263;27;87826;-69
2022/11/20 00:08:08;;;;;;;2.20;1.47;;;;;;;;;;5061328;27;86842;-68
2022/11/20 00:10:37;;;;;;;4.67;2.83;;;;;;;;;;5051745;27;89143;-69
2022/11/20 00:13:06;;;;;;;2.67;1.80;;;;;;;;;;5063326;27;88040;-69
2022/11/20 00:15:34;;;;;;;3.10;1.47;;;;;;;;;;5063031;27;87033;-68
2022/11/20 00:18:02;;;;;;;4.00;2.07;;;;;;;;;;5062914;27;86962;-69
2022/11/20 00:20:32;;;;;;;2.53;1.90;;;;;;;;;;5062499;27;89187;-69
2022/11/20 00:23:00;;;;;;;2.17;1.40;;;;;;;;;;5063362;27;89078;-69
2022/11/20 00:25:29;;;;;;;3.40;2.13;;;;;;;;;;5063089;27;86926;-69
2022/11/20 00:27:57;;;;;;;2.07;1.80;;;;;;;;;;5062379;27;87045;-69
2022/11/20 00:30:25;;;;;;;2.30;1.73;;;;;;;;;;5061641;27;90124;-69
2022/11/20 00:32:54;;;;;;;2.97;1.60;;;;;;;;;;5062960;27;89748;-67
2022/11/20 00:35:22;;;;;;;2.27;1.60;;;;;;;;;;5061995;27;87398;-68
2022/11/20 00:37:52;;;;;;;3.00;1.87;;;;;;;;;;5062576;27;87281;-69
2022/11/20 00:40:20;;;;;;;1.77;1.20;;;;;;;;;;5062012;27;89065;-69
2022/11/20 00:42:48;;;;;;;3.53;1.60;;;;;;;;;;5062846;27;88085;-69
2022/11/20 00:45:17;;;;;;;1.50;1.40;;;;;;;;;;5063225;27;86993;-68
2022/11/20 00:47:45;;;;;;;2.47;1.33;;;;;;;;;;5062828;27;86228;-68
2022/11/20 00:50:13;;;;;;;2.10;1.73;;;;;;;;;;5062291;27;89177;-69
2022/11/20 00:52:42;;;;;;;3.30;1.57;;;;;;;;;;5061901;27;88650;-69
2022/11/20 00:55:12;;;;;;;1.80;1.20;;;;;;;;;;5061523;27;88094;-69
2022/11/20 00:57:40;;;;;;;4.17;1.83;;;;;;;;;;5061982;27;87681;-68
2022/11/20 01:00:09;;;;;;;2.80;1.60;;;;;;;;;;5061736;27;88907;-69
2022/11/20 01:02:37;;;;;;;2.37;1.57;;;;;;;;;;5062578;27;88623;-69
2022/11/20 01:05:05;;;;;;;2.43;1.50;;;;;;;;;;5062389;27;86997;-69
2022/11/20 01:07:34;;;;;;;3.77;1.37;;;;;;;;;;5062412;27;86949;-69
2022/11/20 01:10:02;;;;;;;1.30;1.20;;;;;;;;;;5062136;27;89134;-69
2022/11/20 01:12:32;;;;;;;2.77;1.80;;;;;;;;;;5062453;27;88192;-69
2022/11/20 01:15:00;;;;;;;4.30;1.80;;;;;;;;;;5063427;27;87076;-69
2022/11/20 01:17:28;;;;;;;2.60;1.60;;;;;;;;;;5065669;27;86922;-69
2022/11/20 01:19:57;;;;;;;1.73;1.60;;;;;;;;;;5064491;27;88974;-68
2022/11/20 01:22:25;;;;;;;2.77;1.97;;;;;;;;;;5065763;27;89585;-69
2022/11/20 01:24:53;;;;;;;2.50;1.43;;;;;;;;;;5065868;27;86926;-69
2022/11/20 01:27:21;;;;;;;1.73;1.63;;;;;;;;;;5064821;27;87001;-68
2022/11/20 01:29:51;;;;;;;2.83;1.63;;;;;;;;;;5065419;27;90244;-69
2022/11/20 01:32:26;;;;;;;2.10;1.00;;;;;;;;;;5065049;27;87612;-69
2022/11/20 01:34:55;;;;;;;2.40;1.20;;;;;;;;;;5064984;27;86950;-69
2022/11/20 01:37:23;;;;;;;1.60;1.47;;;;;;;;;;5065374;27;86123;-69
2022/11/20 01:39:51;;;;;;;1.63;1.53;;;;;;;;;;5064655;27;88019;-69
2022/11/20 01:45:20;;;;;;;1.30;1.20;;;;;;;;;;5064370;27;88071;-69
2022/11/20 01:47:50;;;;;;;2.17;1.37;;;;;;;;;;5064549;27;87023;-69
2022/11/20 01:50:20;;;;;;;1.60;1.10;;;;;;;;;;5064673;27;88010;-69
2022/11/20 01:52:50;;;;;;;1.10;1.00;;;;;;;;;;5064316;27;87664;-69
2022/11/20 01:55:19;;;;;;;3.67;1.50;;;;;;;;;;5064324;27;86973;-70
2022/11/20 01:57:47;;;;;;;1.80;1.60;;;;;;;;;;5064768;27;86879;-70
2022/11/20 02:00:17;;;;;;;1.90;1.70;;;;;;;;;;5064466;27;89176;-70
2022/11/20 02:02:46;;;;;;;2.27;1.43;;;;;;;;;;5064610;27;88780;-69
2022/11/20 02:05:18;;;;;;;1.17;1.00;;;;;;;;;;5064894;27;87104;-70
2022/11/20 02:07:47;;;;;;;2.23;1.40;;;;;;;;;;5064832;27;86856;-70
2022/11/20 02:10:15;;;;;;;1.77;1.43;;;;;;;;;;5064097;27;89884;-70
2022/11/20 02:15:29;;;;;;;1.00;0.90;;;;;;;;;;5064780;27;87008;-69
2022/11/20 02:17:57;;;;;;;2.47;1.47;;;;;;;;;;5064362;27;87256;-70
2022/11/20 02:20:27;;;;;;;1.03;0.93;;;;;;;;;;5064131;27;89154;-69
2022/11/20 02:22:56;;;;;;;1.23;1.10;;;;;;;;;;5064509;27;87119;-69
2022/11/20 02:25:26;;;;;;;1.73;1.30;;;;;;;;;;5065059;27;87041;-69
2022/11/20 02:27:54;;;;;;;2.37;0.97;;;;;;;;;;5064929;27;86268;-70
2022/11/20 02:30:22;;;;;;;0.83;0.83;;;;;;;;;;5064217;27;87997;-69
2022/11/20 02:32:51;;;;;;;1.80;1.27;;;;;;;;;;5064316;27;89108;-69
2022/11/20 02:35:37;;;;;;;2.47;1.23;;;;;;;;;;5063469;27;88008;-69
2022/11/20 02:38:06;;;;;;;1.20;1.10;;;;;;;;;;5064474;27;86843;-69
2022/11/20 02:40:35;;;;;;;2.23;1.30;;;;;;;;;;5064319;27;89220;-69
2022/11/20 02:43:04;;;;;;;1.27;1.20;;;;;;;;;;5063509;27;87606;-69
2022/11/20 02:45:32;;;;;;;1.13;1.00;;;;;;;;;;5064679;27;87085;-69
2022/11/20 02:48:00;;;;;;;1.27;1.17;;;;;;;;;;5055544;27;87370;-69
2022/11/20 02:50:29;;;;;;;1.43;1.33;;;;;;;;;;5061003;27;89121;-69
2022/11/20 02:52:57;;;;;;;1.63;1.00;;;;;;;;;;5064666;27;88559;-69
2022/11/20 02:55:25;;;;;;;1.10;0.90;;;;;;;;;;5064268;27;87192;-69
2022/11/20 02:57:55;;;;;;;1.00;1.00;;;;;;;;;;5064243;27;86864;-69
2022/11/20 03:00:23;;;;;;;1.30;1.20;;;;;;;;;;5063729;27;92707;-69
2022/11/20 03:02:52;;;;;;;1.73;1.60;;;;;;;;;;5062446;27;89636;-70
2022/11/20 03:05:20;;;;;;;1.10;1.00;;;;;;;;;;5043798;28;87117;-70
2022/11/20 03:07:48;;;;;;;2.10;1.17;;;;;;;;;;5043302;28;86780;-69
2022/11/20 03:10:17;;;;;;;3.37;1.23;;;;;;;;;;5062973;27;89320;-69
2022/11/20 03:12:46;;;;;;;1.43;1.00;;;;;;;;;;5063628;27;88888;-69
2022/11/20 03:15:15;;;;;;;1.43;0.83;;;;;;;;;;5063315;27;86956;-69
2022/11/20 03:17:44;;;;;;;1.77;1.33;;;;;;;;;;5062017;27;86383;-69
2022/11/20 03:20:12;;;;;;;1.83;1.33;;;;;;;;;;5053200;27;88972;-70
2022/11/20 03:22:40;;;;;;;4.43;1.40;;;;;;;;;;5063326;27;88798;-69
2022/11/20 03:25:09;;;;;;;1.43;1.30;;;;;;;;;;5063279;27;88011;-70
2022/11/20 03:27:37;;;;;;;1.27;1.17;;;;;;;;;;5063301;27;87017;-69
2022/11/20 03:30:06;;;;;;;1.80;1.00;;;;;;;;;;5063682;27;87799;-69
2022/11/20 03:32:36;;;;;;;1.13;0.93;;;;;;;;;;5063574;27;87740;-69
2022/11/20 03:35:04;;;;;;;1.13;1.10;;;;;;;;;;5063967;27;87022;-69
2022/11/20 03:37:33;;;;;;;0.90;0.83;;;;;;;;;;5062512;27;87019;-70
2022/11/20 03:40:01;;;;;;;1.40;1.00;;;;;;;;;;5063486;27;89309;-69
2022/11/20 03:42:48;;;;;;;2.47;0.93;;;;;;;;;;5063291;27;88652;-69
2022/11/20 03:45:16;;;;;;;1.23;0.93;;;;;;;;;;5063359;27;86970;-69
2022/11/20 03:47:46;;;;;;;2.17;1.53;;;;;;;;;;5063041;27;87048;-69
2022/11/20 03:50:15;;;;;;;1.47;1.03;;;;;;;;;;5061959;27;89747;-69
2022/11/20 03:52:43;;;;;;;1.43;0.73;;;;;;;;;;5063025;27;89788;-69
2022/11/20 03:55:11;;;;;;;0.93;0.80;;;;;;;;;;5063201;27;86957;-69
2022/11/20 03:57:40;;;;;;;1.63;1.27;;;;;;;;;;5063255;27;86959;-69
2022/11/20 04:00:08;;;;;;;1.10;1.00;;;;;;;;;;5063012;27;87860;-69
2022/11/20 04:02:36;;;;;;;1.80;1.10;;;;;;;;;;5062867;27;89178;-69
2022/11/20 04:05:07;;;;;;;2.80;1.00;;;;;;;;;;5063306;27;87176;-69
2022/11/20 04:07:36;;;;;;;1.50;1.03;;;;;;;;;;5063331;27;86168;-69
2022/11/20 04:10:04;;;;;;;1.60;1.00;;;;;;;;;;5062411;27;88061;-69
2022/11/20 04:12:34;;;;;;;1.87;1.17;;;;;;;;;;5063048;27;88889;-69
2022/11/20 04:15:02;;;;;;;0.90;0.90;;;;;;;;;;5062665;27;87965;-70
2022/11/20 04:17:30;;;;;;;2.73;1.57;;;;;;;;;;5062545;27;87054;-69
2022/11/20 04:19:59;;;;;;;3.13;1.17;;;;;;;;;;5055357;27;89203;-70
2022/11/20 04:22:28;;;;;;;2.43;1.30;;;;;;;;;;5051753;27;88900;-69
2022/11/20 04:24:57;;;;;;;0.80;0.60;;;;;;;;;;5061245;27;87014;-68
2022/11/20 04:27:25;;;;;;;1.53;1.30;;;;;;;;;;5058331;27;86972;-68
2022/11/20 04:29:53;;;;;;;1.63;0.83;;;;;;;;;;5055945;27;89345;-69
2022/11/20 04:32:21;;;;;;;1.33;1.23;;;;;;;;;;5058526;27;87354;-69
2022/11/20 04:34:50;;;;;;;2.03;1.20;;;;;;;;;;5052421;27;87123;-68
2022/11/20 04:37:18;;;;;;;1.20;1.10;;;;;;;;;;5055385;27;87075;-69
2022/11/20 04:39:48;;;;;;;1.03;0.93;;;;;;;;;;5041628;27;89882;-69
2022/11/20 04:42:31;;;;;;;4.20;1.10;;;;;;;;;;5040901;28;89847;-69
2022/11/20 04:45:00;;;;;;;1.47;1.10;;;;;;;;;;5040548;28;88274;-68
2022/11/20 04:47:28;;;;;;;3.10;0.90;;;;;;;;;;5041021;28;87044;-68
2022/11/20 04:49:56;;;;;;;1.70;1.60;;;;;;;;;;5032725;27;89302;-68
2022/11/20 04:52:25;;;;;;;2.33;1.17;;;;;;;;;;5053205;27;88812;-68
2022/11/20 04:54:55;;;;;;;0.70;0.67;;;;;;;;;;5044213;28;87127;-67
2022/11/20 04:57:23;;;;;;;1.17;0.97;;;;;;;;;;5045288;28;86199;-68
2022/11/20 04:59:51;;;;;;;1.30;1.20;;;;;;;;;;5044114;28;89330;-67
2022/11/20 05:02:20;;;;;;;1.87;1.23;;;;;;;;;;5049587;27;90476;-68
2022/11/20 05:04:48;;;;;;;4.93;3.60;;;;;;;;;;5055992;27;87983;-67
2022/11/20 05:07:16;;;;;;;7.73;5.07;;;;;;;;;;5061444;27;87061;-68
2022/11/20 05:09:45;;;;;;;7.57;4.77;;;;;;;;;;5055449;27;89060;-67
2022/11/20 05:12:15;;;;;;;5.67;4.13;;;;;;;;;;5053037;27;89038;-68
2022/11/20 05:14:43;;;;;;;7.53;5.17;;;;;;;;;;5043809;28;87174;-68
2022/11/20 05:17:12;;;;;;;8.57;5.57;;;;;;;;;;5044520;28;87063;-68
2022/11/20 05:19:40;;;;;;;9.37;6.27;;;;;;;;;;5060805;27;88875;-68
2022/11/20 05:22:08;;;;;;;7.30;5.00;;;;;;;;;;5062804;27;87805;-68
2022/11/20 05:24:37;;;;;;;5.87;4.83;;;;;;;;;;5054028;27;86964;-68
2022/11/20 05:27:05;;;;;;;8.67;4.97;;;;;;;;;;5044023;28;87134;-68
2022/11/20 05:29:35;;;;;;;6.93;4.87;;;;;;;;;;5043729;28;89225;-68
2022/11/20 05:32:05;;;;;;;6.27;4.27;;;;;;;;;;5044349;28;88864;-68
2022/11/20 05:34:33;;;;;;;3.80;3.37;;;;;;;;;;5044230;28;87072;-68
2022/11/20 05:37:02;;;;;;;6.63;4.03;;;;;;;;;;5044682;28;87068;-68
2022/11/20 05:39:30;;;;;;;9.20;4.37;;;;;;;;;;5043762;28;89202;-68
2022/11/20 05:44:42;;;;;;;5.67;3.47;;;;;;;;;;5041394;28;87138;-67
2022/11/20 05:47:10;;;;;;;3.97;3.07;;;;;;;;;;5037583;28;86555;-67
2022/11/20 05:49:38;;;;;;;4.63;3.13;;;;;;;;;;5036456;28;88922;-66
2022/11/20 05:52:07;;;;;;;4.77;3.20;;;;;;;;;;5036768;27;88898;-66
2022/11/20 05:54:35;;;;;;;6.43;3.63;;;;;;;;;;5035338;27;88857;-67
2022/11/20 05:57:03;;;;;;;6.03;3.07;;;;;;;;;;5038695;28;87126;-67
2022/11/20 05:59:32;;;;;;;5.63;2.93;;;;;;;;;;5039173;27;89155;-67
2022/11/20 06:02:01;;;;;;;4.47;2.93;;;;;;;;;;5037718;28;91638;-66
2022/11/20 06:04:30;;;;;;;3.10;2.40;;;;;;;;;;5036800;28;88316;-66
2022/11/20 06:06:58;;;;;;;5.60;2.60;;;;;;;;;;5036752;28;87161;-66
2022/11/20 06:09:26;;;;;;;3.87;2.80;;;;;;;;;;5038866;27;89302;-66
2022/11/20 06:11:55;;;;;;;4.40;2.27;;;;;;;;;;5043094;27;88707;-67
2022/11/20 06:14:23;;;;;;;3.83;2.00;;;;;;;;;;5047888;27;87086;-66
2022/11/20 06:16:51;;;;;;;3.40;2.57;;;;;;;;;;5043546;27;86975;-67
2022/11/20 06:19:21;;;;;;;5.40;2.40;;;;;;;;;;5043906;27;90016;-67
2022/11/20 06:21:50;;;;;;;3.40;2.57;;;;;;;;;;5042687;27;89746;-67
2022/11/20 06:24:18;;;;;;;3.00;2.40;;;;;;;;;;5049523;27;87120;-67
2022/11/20 06:26:46;;;;;;;6.60;2.60;;;;;;;;;;5055716;27;87153;-67
2022/11/20 06:29:15;;;;;;;3.23;2.20;;;;;;;;;;5043271;27;89125;-67
2022/11/20 06:31:43;;;;;;;2.20;1.87;;;;;;;;;;5062221;27;86935;-67
2022/11/20 06:34:12;;;;;;;4.33;2.30;;;;;;;;;;5062642;27;87022;-67
2022/11/20 06:36:42;;;;;;;2.40;2.20;;;;;;;;;;5046515;27;86242;-67
2022/11/20 06:39:11;;;;;;;2.60;1.73;;;;;;;;;;5035696;27;89070;-67
2022/11/20 06:41:39;;;;;;;1.60;1.40;;;;;;;;;;5042669;27;88766;-67
2022/11/20 06:44:07;;;;;;;2.87;2.10;;;;;;;;;;5042243;27;88206;-67
2022/11/20 06:46:35;;;;;;;2.77;1.93;;;;;;;;;;5057813;27;88228;-67
2022/11/20 06:49:04;;;;;;;2.47;1.50;;;;;;;;;;5053228;27;87757;-68
2022/11/20 06:51:32;;;;;;;3.23;2.53;;;;;;;;;;5055875;27;88896;-67
2022/11/20 06:54:02;;;;;;;3.80;2.77;;;;;;;;;;5056969;27;87262;-67
2022/11/20 06:56:30;;;;;;;3.00;2.63;;;;;;;;;;5046777;27;87092;-67
2022/11/20 06:58:58;;;;;;;5.80;3.57;;;;;;;;;;5048658;27;89274;-67
2022/11/20 07:01:27;;;;;;;5.10;3.53;;;;;;;;;;5023570;27;88930;-67
2022/11/20 07:03:55;;;;;;;6.07;3.40;;;;;;;;;;5046763;27;86991;-67
2022/11/20 07:06:23;;;;;;;7.27;4.10;;;;;;;;;;5056469;27;87581;-67
2022/11/20 07:08:52;;;;;;;8.13;4.47;;;;;;;;;;5043809;27;90072;-67
2022/11/20 07:11:22;;;;;;;5.87;3.53;;;;;;;;;;5043447;27;89730;-67
2022/11/20 07:13:50;;;;;;;10.10;4.43;;;;;;;;;;5047586;27;87144;-67
2022/11/20 07:16:19;;;;;;;7.10;3.73;;;;;;;;;;5044180;27;87022;-67
2022/11/20 07:18:47;;;;;;;7.47;4.40;;;;;;;;;;5033865;27;88269;-67
2022/11/20 07:21:18;;;;;;;8.13;4.40;;;;;;;;;;5033105;28;88766;-67
2022/11/20 07:23:46;;;;;;;8.33;3.97;;;;;;;;;;5047360;27;87718;-67
2022/11/20 07:26:14;;;;;;;5.30;4.20;;;;;;;;;;5040357;27;86329;-67
2022/11/20 07:28:46;;;;;;;5.77;3.83;;;;;;;;;;5044429;27;89096;-67
2022/11/20 07:31:15;;;;;;;7.07;4.80;;;;;;;;;;5045706;27;88722;-66
2022/11/20 07:33:47;;;;;;;8.07;4.47;;;;;;;;;;5045949;27;88532;-67
2022/11/20 07:36:15;;;;;;;7.87;4.00;;;;;;;;;;5035861;27;87129;-67
2022/11/20 07:38:43;;;;;;;5.33;3.80;;;;;;;;;;5041718;27;89318;-67
2022/11/20 07:41:11;;;;;;;5.80;4.00;;;;;;;;;;5050245;27;88910;-66
2022/11/20 07:43:40;;;;;;;5.77;3.97;;;;;;;;;;5049153;27;86963;-66
2022/11/20 07:46:10;;;;;;;4.37;3.33;;;;;;;;;;5054158;27;87061;-67
2022/11/20 07:48:38;;;;;;;7.23;4.43;;;;;;;;;;5058463;27;89313;-66
2022/11/20 07:51:07;;;;;;;5.93;4.37;;;;;;;;;;5041880;27;88777;-66
2022/11/20 07:53:35;;;;;;;5.33;3.10;;;;;;;;;;5040900;28;87069;-66
2022/11/20 07:56:04;;;;;;;6.73;3.43;;;;;;;;;;5042079;28;86931;-67
2022/11/20 07:58:34;;;;;;;8.30;3.17;;;;;;;;;;5040018;28;90074;-66
2022/11/20 08:01:05;;;;;;;7.23;3.37;;;;;;;;;;5041312;28;91761;-66
2022/11/20 08:03:37;;;;;;;5.47;3.50;;;;;;;;;;5041032;28;87025;-68
2022/11/20 08:06:06;;;;;;;6.47;3.40;;;;;;;;;;5041508;28;87084;-67
2022/11/20 08:08:34;;;;;;;6.63;3.30;;;;;;;;;;5040222;27;89428;-67
2022/11/20 08:14:14;;;;;;;3.40;2.77;;;;;;;;;;5041228;28;87068;-67
2022/11/20 08:16:42;;;;;;;4.27;3.13;;;;;;;;;;5041756;28;86426;-68
2022/11/20 08:19:12;;;;;;;4.70;3.40;;;;;;;;;;5040592;28;89135;-67
2022/11/20 08:21:40;;;;;;;6.10;3.13;;;;;;;;;;5041006;28;88788;-67
2022/11/20 08:24:09;;;;;;;6.97;4.07;;;;;;;;;;5039715;27;88009;-67
2022/11/20 08:26:37;;;;;;;5.07;3.20;;;;;;;;;;5041246;28;87424;-67
2022/11/20 08:29:06;;;;;;;5.30;3.43;;;;;;;;;;5040771;28;89257;-66
2022/11/20 08:31:34;;;;;;;6.50;2.73;;;;;;;;;;5043166;27;88908;-67
2022/11/20 08:34:02;;;;;;;4.83;2.97;;;;;;;;;;5039199;27;87322;-67
2022/11/20 08:36:38;;;;;;;8.10;2.90;;;;;;;;;;5037318;28;87300;-67
2022/11/20 08:39:06;;;;;;;4.37;2.77;;;;;;;;;;5036933;28;87947;-67
2022/11/20 08:41:36;;;;;;;7.60;3.47;;;;;;;;;;5039064;28;88740;-68
2022/11/20 08:44:06;;;;;;;4.53;3.20;;;;;;;;;;5037925;28;87916;-66
2022/11/20 08:46:36;;;;;;;4.77;3.00;;;;;;;;;;5039550;28;86924;-66
2022/11/20 08:49:04;;;;;;;3.67;2.77;;;;;;;;;;5037323;28;90171;-67
2022/11/20 08:51:32;;;;;;;6.57;2.70;;;;;;;;;;5039288;28;90028;-66
2022/11/20 08:54:02;;;;;;;4.87;3.20;;;;;;;;;;5038794;28;87363;-65
2022/11/20 08:56:31;;;;;;;5.90;2.80;;;;;;;;;;5038003;28;87053;-66
2022/11/20 08:59:00;;;;;;;5.57;3.00;;;;;;;;;;5037823;28;89308;-66
2022/11/20 09:01:48;;;;;;;8.07;2.37;;;;;;;;;;5036603;28;90201;-66
2022/11/20 09:04:16;;;;;;;3.87;2.37;;;;;;;;;;5038064;27;87167;-66
2022/11/20 09:06:45;;;;;;;3.23;2.77;;;;;;;;;;5038031;28;86204;-66
2022/11/20 09:09:15;;;;;;;3.10;2.60;;;;;;;;;;5039503;27;89250;-66
2022/11/20 09:11:43;;;;;;;5.03;2.17;;;;;;;;;;5040005;28;88920;-66
2022/11/20 09:14:11;;;;;;;4.13;2.40;;;;;;;;;;5040675;27;88545;-66
2022/11/20 09:16:40;;;;;;;2.53;2.10;;;;;;;;;;5038814;28;87331;-68
2022/11/20 09:19:08;;;;;;;3.27;2.90;;;;;;;;;;5038785;28;91720;-67
2022/11/20 09:21:56;;;;;;;3.00;2.20;;;;;;;;;;5037924;28;87396;-66
2022/11/20 09:24:28;;;;;;;3.10;1.80;;;;;;;;;;5040127;28;87127;-67
2022/11/20 09:26:57;;;;;;;2.57;1.97;;;;;;;;;;5039469;28;87109;-68
2022/11/20 09:29:25;;;;;;;4.70;2.90;;;;;;;;;;5039781;28;88717;-67
2022/11/20 09:31:53;;;;;;;6.17;2.57;;;;;;;;;;5040159;28;88577;-69
2022/11/20 09:34:22;;;;;;;3.50;2.53;;;;;;;;;;5045035;27;87010;-67
2022/11/20 09:36:50;;;;;;;3.77;2.37;;;;;;;;;;5043508;27;87065;-67
2022/11/20 09:39:18;;;;;;;3.07;2.37;;;;;;;;;;5042863;28;90023;-67
2022/11/20 09:41:55;;;;;;;3.37;2.33;;;;;;;;;;5043247;28;89387;-67
2022/11/20 09:44:28;;;;;;;3.60;2.23;;;;;;;;;;5042497;28;87064;-67
2022/11/20 09:46:57;;;;;;;2.83;2.50;;;;;;;;;;5042822;28;87597;-67
2022/11/20 09:49:26;;;;;;;5.17;2.40;;;;;;;;;;5048715;27;88627;-68
2022/11/20 09:52:00;;;;;;;3.80;2.37;;;;;;;;;;5044997;27;87617;-68
2022/11/20 09:54:29;;;;;;;8.17;3.63;;;;;;;;;;5044249;28;87037;-68
2022/11/20 09:57:00;;;;;;;3.53;2.90;;;;;;;;;;5043373;28;86494;-69
2022/11/20 09:59:34;;;;;;;4.60;2.47;;;;;;;;;;5043728;27;89270;-69
2022/11/20 10:02:02;;;;;;;3.97;2.30;;;;;;;;;;5043057;28;88979;-68
2022/11/20 10:04:31;;;;;;;3.60;2.47;;;;;;;;;;5044454;27;88017;-68
2022/11/20 10:07:04;;;;;;;2.40;2.20;;;;;;;;;;5047225;27;86959;-68
2022/11/20 10:09:53;;;;;;;5.43;2.83;;;;;;;;;;5042315;27;88727;-68
2022/11/20 10:12:24;;;;;;;6.93;3.20;;;;;;;;;;5041335;28;89139;-68
2022/11/20 10:14:56;;;;;;;3.33;2.20;;;;;;;;;;5042211;28;87347;-68
2022/11/20 10:17:29;;;;;;;3.87;2.50;;;;;;;;;;5036309;28;87179;-68
2022/11/20 10:20:01;;;;;;;2.77;2.27;;;;;;;;;;5040046;28;89027;-68
2022/11/20 10:22:33;;;;;;;4.43;2.53;;;;;;;;;;5023711;28;87866;-68
2022/11/20 10:25:02;;;;;;;3.90;2.63;;;;;;;;;;5032589;28;87176;-68
2022/11/20 10:27:36;;;;;;;2.73;2.47;;;;;;;;;;5042103;28;87088;-68
2022/11/20 10:30:08;;;;;;;2.47;1.80;;;;;;;;;;5042088;28;88920;-68
2022/11/20 10:32:38;;;;;;;3.67;2.63;;;;;;;;;;5042661;28;89307;-68
2022/11/20 10:35:09;;;;;;;3.93;2.17;;;;;;;;;;5042311;28;87037;-68
2022/11/20 10:37:37;;;;;;;2.10;1.90;;;;;;;;;;5042146;28;87090;-68
2022/11/20 10:40:07;;;;;;;3.87;2.93;;;;;;;;;;5037623;28;91491;-69
2022/11/20 10:42:39;;;;;;;2.33;2.10;;;;;;;;;;5034198;28;88995;-69
2022/11/20 10:45:13;;;;;;;4.87;2.50;;;;;;;;;;5042121;28;87104;-68
2022/11/20 10:47:41;;;;;;;3.50;2.33;;;;;;;;;;5041790;27;86444;-67
2022/11/20 10:50:11;;;;;;;3.67;3.10;;;;;;;;;;5042083;28;89267;-67
2022/11/20 10:52:44;;;;;;;4.17;2.23;;;;;;;;;;5039105;28;89011;-67
2022/11/20 10:55:14;;;;;;;4.70;3.17;;;;;;;;;;5042940;28;88020;-67
2022/11/20 10:57:48;;;;;;;2.87;2.00;;;;;;;;;;5042325;28;86954;-67
2022/11/20 11:00:17;;;;;;;2.80;2.17;;;;;;;;;;5042299;28;89131;-67
2022/11/20 11:02:47;;;;;;;3.50;3.07;;;;;;;;;;5041434;28;90390;-67
2022/11/20 11:05:22;;;;;;;4.23;2.87;;;;;;;;;;5041266;28;87065;-68
2022/11/20 11:07:50;;;;;;;3.13;2.47;;;;;;;;;;5042185;28;87196;-67
2022/11/20 11:10:19;;;;;;;3.60;2.00;;;;;;;;;;5041550;27;89146;-68
2022/11/20 11:12:49;;;;;;;3.07;2.07;;;;;;;;;;5041799;28;90336;-68
2022/11/20 11:15:26;;;;;;;4.30;2.83;;;;;;;;;;5040922;28;86985;-67
2022/11/20 11:17:55;;;;;;;3.67;2.40;;;;;;;;;;5047812;27;87010;-68
2022/11/20 11:20:23;;;;;;;8.97;2.83;;;;;;;;;;5042153;27;90181;-67
2022/11/20 11:22:52;;;;;;;4.50;2.63;;;;;;;;;;5041362;28;89807;-67
2022/11/20 11:25:21;;;;;;;4.03;2.73;;;;;;;;;;5054679;27;86995;-67
2022/11/20 11:27:51;;;;;;;7.47;3.30;;;;;;;;;;5041019;28;87215;-67
2022/11/20 11:30:20;;;;;;;6.77;3.57;;;;;;;;;;5040856;28;89054;-67
2022/11/20 11:32:48;;;;;;;4.47;3.70;;;;;;;;;;5040677;28;88831;-67
2022/11/20 11:35:23;;;;;;;3.80;2.97;;;;;;;;;;5033957;28;87075;-67
2022/11/20 11:37:53;;;;;;;6.23;3.37;;;;;;;;;;5041840;28;86272;-67
2022/11/20 11:40:23;;;;;;;4.50;3.07;;;;;;;;;;5041204;28;89036;-68
2022/11/20 11:42:55;;;;;;;3.03;2.50;;;;;;;;;;5041187;28;87548;-67
2022/11/20 11:45:23;;;;;;;2.90;2.03;;;;;;;;;;5041579;28;88007;-67
2022/11/20 11:47:51;;;;;;;5.77;3.13;;;;;;;;;;5041963;28;87046;-67
2022/11/20 11:50:20;;;;;;;4.43;2.73;;;;;;;;;;5041478;28;89037;-67
2022/11/20 11:52:55;;;;;;;5.57;2.77;;;;;;;;;;5040025;28;88429;-67
2022/11/20 11:55:26;;;;;;;5.00;2.87;;;;;;;;;;5042100;28;86999;-68
2022/11/20 11:57:57;;;;;;;4.37;2.50;;;;;;;;;;5041526;27;87121;-68
2022/11/20 12:00:26;;;;;;;4.13;2.63;;;;;;;;;;5042439;28;88350;-69
2022/11/20 12:02:56;;;;;;;6.77;3.07;;;;;;;;;;5042270;28;89000;-69
2022/11/20 12:05:25;;;;;;;4.83;2.57;;;;;;;;;;5042033;28;87062;-70
2022/11/20 12:07:54;;;;;;;4.43;2.93;;;;;;;;;;5041602;28;87099;-69
2022/11/20 12:10:23;;;;;;;4.37;2.73;;;;;;;;;;5037842;27;89979;-69
2022/11/20 12:12:53;;;;;;;7.97;3.37;;;;;;;;;;5041007;28;89867;-69
2022/11/20 12:15:27;;;;;;;3.67;2.60;;;;;;;;;;5040633;28;87567;-69
2022/11/20 12:17:55;;;;;;;6.50;3.10;;;;;;;;;;5040412;28;87393;-68
2022/11/20 12:20:24;;;;;;;8.27;2.80;;;;;;;;;;5040835;28;89141;-68
2022/11/20 12:22:54;;;;;;;6.27;3.70;;;;;;;;;;5041384;28;88996;-69
2022/11/20 12:25:23;;;;;;;9.77;3.67;;;;;;;;;;5042792;27;87158;-69
2022/11/20 12:28:11;;;;;;;8.80;3.57;;;;;;;;;;5053045;27;86321;-69
2022/11/20 12:30:43;;;;;;;6.33;2.87;;;;;;;;;;5041530;28;89115;-68
2022/11/20 12:33:18;;;;;;;6.83;3.77;;;;;;;;;;5048504;27;88867;-67
2022/11/20 12:35:53;;;;;;;6.73;3.70;;;;;;;;;;5062020;27;87999;-67
2022/11/20 12:38:36;;;;;;;5.47;3.43;;;;;;;;;;5049245;27;87082;-68
2022/11/20 12:41:05;;;;;;;6.87;3.53;;;;;;;;;;5041020;28;87958;-67
2022/11/20 12:46:25;;;;;;;3.70;2.73;;;;;;;;;;5058619;27;87034;-72
2022/11/20 12:48:54;;;;;;;5.13;3.30;;;;;;;;;;5059781;27;87069;-74
2022/11/20 12:51:35;;;;;;;7.67;3.10;;;;;;;;;;5061430;27;89154;-69
2022/11/20 12:54:19;;;;;;;5.30;3.20;;;;;;;;;;5051122;27;91078;-69
2022/11/20 12:56:49;;;;;;;4.60;3.27;;;;;;;;;;5042790;27;87095;-70
2022/11/20 12:59:25;;;;;;;5.87;3.40;;;;;;;;;;5041262;28;87790;-70
2022/11/20 13:01:56;;;;;;;5.80;3.20;;;;;;;;;;5040743;28;89425;-70
2022/11/20 13:04:43;;;;;;;5.13;3.10;;;;;;;;;;5041268;28;89283;-69
2022/11/20 13:07:13;;;;;;;6.40;3.60;;;;;;;;;;5041056;28;87151;-68
2022/11/20 13:09:42;;;;;;;5.83;2.63;;;;;;;;;;5051433;27;87118;-69
2022/11/20 13:12:12;;;;;;;8.73;3.67;;;;;;;;;;5045896;27;89176;-69
2022/11/20 13:14:42;;;;;;;5.30;3.30;;;;;;;;;;5044456;28;88604;-69
2022/11/20 13:17:13;;;;;;;7.07;3.90;;;;;;;;;;5044699;28;87120;-69
2022/11/20 13:19:42;;;;;;;6.13;3.53;;;;;;;;;;5045422;28;86568;-69
2022/11/20 13:22:10;;;;;;;7.73;3.77;;;;;;;;;;5044829;28;88904;-69
2022/11/20 13:24:38;;;;;;;6.67;2.83;;;;;;;;;;5043967;27;88954;-68
2022/11/20 13:27:19;;;;;;;5.00;3.27;;;;;;;;;;5049790;27;88280;-67
2022/11/20 13:29:48;;;;;;;4.93;2.97;;;;;;;;;;5039091;27;87000;-68
2022/11/20 13:32:18;;;;;;;5.43;3.33;;;;;;;;;;5024437;28;89130;-67
2022/11/20 13:34:53;;;;;;;4.07;3.03;;;;;;;;;;5038651;27;88898;-70
2022/11/20 13:37:28;;;;;;;7.80;3.70;;;;;;;;;;5042896;27;87240;-67
2022/11/20 13:40:06;;;;;;;4.70;2.87;;;;;;;;;;5042118;27;87822;-69
2022/11/20 13:42:35;;;;;;;6.33;3.27;;;;;;;;;;5049160;27;89128;-68
2022/11/20 13:45:04;;;;;;;8.23;3.27;;;;;;;;;;5047309;27;88885;-71
2022/11/20 13:47:34;;;;;;;4.70;2.67;;;;;;;;;;5047815;27;88038;-66
2022/11/20 13:50:04;;;;;;;5.77;3.53;;;;;;;;;;5044670;27;87127;-65
2022/11/20 13:52:37;;;;;;;6.53;2.43;;;;;;;;;;5042042;28;89695;-67
2022/11/20 13:55:09;;;;;;;5.47;3.40;;;;;;;;;;5041709;27;89872;-65
2022/11/20 13:57:50;;;;;;;6.27;3.10;;;;;;;;;;5029730;27;87990;-66
2022/11/20 14:00:18;;;;;;;5.23;3.37;;;;;;;;;;5029805;27;87151;-66
2022/11/20 14:02:50;;;;;;;4.37;3.10;;;;;;;;;;5033826;27;89233;-65
2022/11/20 14:05:20;;;;;;;5.93;3.33;;;;;;;;;;5043571;28;88644;-65
2022/11/20 14:07:48;;;;;;;6.70;3.53;;;;;;;;;;5043843;28;87089;-65
2022/11/20 14:10:23;;;;;;;5.17;2.77;;;;;;;;;;5056413;27;86292;-65
2022/11/20 14:12:59;;;;;;;7.97;3.20;;;;;;;;;;5073412;27;89457;-64
2022/11/20 14:15:28;;;;;;;5.87;3.50;;;;;;;;;;5064593;27;88927;-65
2022/11/20 14:17:57;;;;;;;8.37;4.00;;;;;;;;;;5071904;27;88042;-65
2022/11/20 14:20:26;;;;;;;7.90;3.40;;;;;;;;;;5063474;27;87054;-65
2022/11/20 14:22:54;;;;;;;8.60;3.20;;;;;;;;;;5063608;27;89129;-65
2022/11/20 14:25:26;;;;;;;8.40;3.87;;;;;;;;;;5069500;27;89151;-64
2022/11/20 14:27:55;;;;;;;8.10;3.53;;;;;;;;;;5059262;27;87074;-65
2022/11/20 14:30:24;;;;;;;8.80;3.50;;;;;;;;;;5062800;27;87058;-65
2022/11/20 14:32:52;;;;;;;7.23;4.30;;;;;;;;;;5064704;27;89081;-64
2022/11/20 14:35:23;;;;;;;5.73;3.37;;;;;;;;;;5060337;27;88961;-65
2022/11/20 14:37:52;;;;;;;8.93;4.50;;;;;;;;;;5053971;27;87055;-64
2022/11/20 14:40:24;;;;;;;9.40;4.47;;;;;;;;;;5053446;27;87327;-64
2022/11/20 14:42:52;;;;;;;8.83;4.57;;;;;;;;;;5060147;27;89659;-64
2022/11/20 14:45:21;;;;;;;8.57;3.67;;;;;;;;;;5054061;27;89915;-64
2022/11/20 14:47:49;;;;;;;5.70;3.03;;;;;;;;;;5055185;27;87371;-64
2022/11/20 14:50:19;;;;;;;7.97;3.37;;;;;;;;;;5059883;27;87441;-64
2022/11/20 14:52:56;;;;;;;5.53;3.00;;;;;;;;;;5049949;27;88137;-64
2022/11/20 14:55:28;;;;;;;4.77;2.90;;;;;;;;;;5056745;27;91253;-64
2022/11/20 14:57:56;;;;;;;5.43;3.27;;;;;;;;;;5063106;27;87163;-64
2022/11/20 15:00:25;;;;;;;4.60;3.00;;;;;;;;;;5070405;27;86283;-63
2022/11/20 15:02:53;;;;;;;5.73;3.70;;;;;;;;;;5063814;27;92053;-64
2022/11/20 15:05:22;;;;;;;6.63;3.47;;;;;;;;;;5082437;27;88866;-64
2022/11/20 15:07:51;;;;;;;5.10;3.47;;;;;;;;;;5056076;27;87983;-64
2022/11/20 15:10:24;;;;;;;7.83;3.80;;;;;;;;;;5078015;27;87093;-64
2022/11/20 15:12:53;;;;;;;7.20;3.80;;;;;;;;;;5066558;27;89446;-64